This demonstration page uses our WeatherBlox Daily Observations layout. Learn more.

41.55636, -103.73856

Hourly Observations for November 14, 2019

Temp ( °F °C ) Dew Point ( °F °C ) Humidity (%) Winds ( mph kmh ) Pressure ( in mb ) Visibility ( mi km ) Precip ( " mm )
12:58 am 00:58 Mostly Clear 29 -1.4 29 -1.8 97 97 W 8 13 30.3 1026 10 16.09344 0 0
1:58 am 01:58 Partly Cloudy 30 -1.2 29 -1.6 97 97 W 8 13 30.3 1026 10 16.09344 0 0
2:58 am 02:58 Mostly Cloudy 30 -1.3 29 -1.6 98 98 W 6 9 30.3 1026 10 16.09344 0 0
3:58 am 03:58 Mostly Clear 29 -1.8 28 -2.4 96 96 W 7 11 30.33 1027 10 16.09344 0 0
4:58 am 04:58 Partly Cloudy 26 -3.5 24 -4.3 94 94 W 8 13 30.39 1029 10 16.09344 0 0
5:58 am 05:58 Clear 26 -3.2 25 -4.1 94 94 W 8 13 30.39 1029 10 16.09344 0 0
6:58 am 06:58 Sunny 29 -1.5 28 -2.4 94 94 W 14 22 30.39 1029 10 16.09344 0 0
7:58 am 07:58 Partly Cloudy with Mist and Fog 30 -1.3 29 -1.8 96 96 W 13 20 30.39 1029 5 8.04672 0 0
8:58 am 08:58 Cloudy with Mist and Fog 32 0.2 32 0.1 99 99 W 12 19 30.39 1029 2.75 4.425696 0 0
9:58 am 09:58 Partly Cloudy 37 2.6 36 2.1 97 97 WSW 12 19 30.39 1029 10 16.09344 0 0
10:58 am 10:58 Sunny 40 4.3 33 0.6 77 77 WSW 20 31 30.36 1028 10 16.09344 0 0
11:58 am 11:58 Sunny 44 6.8 32 -0.1 62 62 WSW 16 26 30.3 1026 10 16.09344 0 0
12:58 pm 12:58 Sunny 45 7.4 32 0.2 61 61 WSW 13 20 30.3 1026 10 16.09344 0 0
1:58 pm 13:58 Sunny 48 8.8 29 -1.6 48 48 SW 12 19 30.27 1025 10 16.09344 0 0
2:58 pm 14:58 Sunny 48 8.8 29 -1.9 47 47 SW 9 15 30.27 1025 10 16.09344 0 0
3:58 pm 15:58 Sunny 47 8.2 26 -3.1 45 45 WSW 8 13 30.27 1025 10 16.09344 0 0
4:58 pm 16:58 Clear 37 2.7 27 -2.6 68 68 WSW 9 15 30.33 1027 10 16.09344 0 0
5:58 pm 17:58 Clear 35 1.5 28 -2 78 78 SW 8 13 30.33 1027 10 16.09344 0 0
6:58 pm 18:58 Clear 32 0.1 28 -2.1 85 85 SW 9 15 30.33 1027 10 16.09344 0 0
7:58 pm 19:58 Clear 33 0.4 28 -2.4 82 82 SW 8 13 30.33 1027 10 16.09344 0 0
8:58 pm 20:58 Clear 33 0.3 28 -2.1 84 84 SW 10 17 30.3 1026 10 16.09344 0 0
9:58 pm 21:58 Clear 31 -0.6 27 -2.6 87 87 WSW 7 11 30.27 1025 10 16.09344 0 0
10:58 pm 22:58 Clear 31 -0.6 27 -2.9 85 85 WSW 9 15 30.24 1024 10 16.09344 0 0
11:58 pm 23:58 Clear 32 0.2 28 -2.5 82 82 W 10 17 30.18 1022 10 16.09344 0 0

Powered by AerisWeather